Brazoria County Airport
KLBX : now visible

Airfield :











YOU CAN JOIN US ON...

 
LOGIN :

Register | Disclaimer

   EN    FR    IT 

 









Legend :    VFR   Marginal VFR   IFR   Intensive IFR   Very Intensive IFR
Visi :
Ceiling :
>= 8 km
>= 3000ft
5 to 8 km
1000 to 3000 ft
1500m to 5 km
500 to 1000 ft
800 to 1500m
200 to 500 ft
< 800m
< 200 ft
Symbols :   Thunderstorms  Fog  Heavy snow  Heavy precipitations  Wind > 20 kt






- Airport Elevation : 25 ft


KLBX - Brazoria County

CURRENT METAR :
  • 110211Z AUTO 09004KT 9SM FEW009 BKN029 BKN034 26/24 A2991 RMK AO2 T02610239

EXPIRED METARs :
  • 110153Z AUTO 11005KT 9SM BKN031 26/23 A2990 RMK AO2 SLP126 T02560233
  • 110127Z AUTO 11005KT 10SM FEW013 BKN027 BKN033 26/23 A2989 RMK AO2 T02610233
  • 110053Z AUTO 12006KT 10SM FEW015 SCT030 BKN034 27/23 A2988 RMK AO2 SLP118 T02670233
  • 110034Z AUTO 13008KT 10SM SCT016 BKN028 OVC046 27/23 A2988 RMK AO2 T02720233
  • 102353Z AUTO 14008KT 10SM FEW016 BKN035 27/23 A2988 RMK AO2 SLP117 T02720233 10311 20272 53000

TAF KLBX
Valid from the 11 at 00:00 until the 12 at 00:00 UTC


102320Z 1100/1124 16009KT P6SM SCT020 BKN035
FM110300 16005KT P6SM FEW010 SCT015 BKN045
FM110600 VRB05KT 6SM BR SCT010 BKN015 BKN025
FM111400 16010KT P6SM SCT020 BKN030
FM111900 17012KT P6SM SCT030 BKN045
KZHU FIR / North America



MET'MAP, your aeronautical weather chart ! - Copyright ORBIFLY December 2007 - Disclaimer

ORBIFLY MET'MAP TEAM :

Programming & Development : Alexandra Zaïnal
Concept & original design : Baudouin d'Aumeries
Assistance for programming : Marc-Olivier Méhu
Technical & hardware support : Manuel Goepfert

Contact : metmap@orbifly.com




SOURCES & CREDITS :

   NOAA       Earth
Advisory